sensor_id;sensor_type;location;lat;lon;timestamp;P1;durP1;ratioP1;P2;durP2;ratioP2
78612;SDS011;67933;51.060;3.638;2023-07-16T00:00:16;4.53;;;2.55;;
78612;SDS011;67933;51.060;3.638;2023-07-16T00:02:43;8.43;;;2.38;;
78612;SDS011;67933;51.060;3.638;2023-07-16T00:05:09;5.85;;;2.55;;
78612;SDS011;67933;51.060;3.638;2023-07-16T00:07:34;6.75;;;2.50;;
78612;SDS011;67933;51.060;3.638;2023-07-16T00:09:59;6.00;;;2.40;;
78612;SDS011;67933;51.060;3.638;2023-07-16T00:12:25;6.15;;;2.53;;
78612;SDS011;67933;51.060;3.638;2023-07-16T00:14:50;8.43;;;2.80;;
78612;SDS011;67933;51.060;3.638;2023-07-16T00:17:16;6.97;;;2.58;;
78612;SDS011;67933;51.060;3.638;2023-07-16T00:19:41;6.57;;;2.75;;
78612;SDS011;67933;51.060;3.638;2023-07-16T00:22:07;9.80;;;2.72;;
78612;SDS011;67933;51.060;3.638;2023-07-16T00:24:32;8.75;;;2.78;;
78612;SDS011;67933;51.060;3.638;2023-07-16T00:26:57;9.82;;;3.35;;
78612;SDS011;67933;51.060;3.638;2023-07-16T00:29:23;8.50;;;2.55;;
78612;SDS011;67933;51.060;3.638;2023-07-16T00:31:49;9.55;;;2.40;;
78612;SDS011;67933;51.060;3.638;2023-07-16T00:34:14;8.35;;;2.83;;
78612;SDS011;67933;51.060;3.638;2023-07-16T00:36:39;7.13;;;2.40;;
78612;SDS011;67933;51.060;3.638;2023-07-16T00:39:05;7.22;;;2.58;;
78612;SDS011;67933;51.060;3.638;2023-07-16T00:41:30;10.45;;;2.78;;
78612;SDS011;67933;51.060;3.638;2023-07-16T00:43:56;11.63;;;3.28;;
78612;SDS011;67933;51.060;3.638;2023-07-16T00:46:21;7.72;;;2.63;;
78612;SDS011;67933;51.060;3.638;2023-07-16T00:48:47;6.78;;;2.45;;
78612;SDS011;67933;51.060;3.638;2023-07-16T00:51:12;10.00;;;2.60;;
78612;SDS011;67933;51.060;3.638;2023-07-16T00:53:40;5.43;;;2.28;;
78612;SDS011;67933;51.060;3.638;2023-07-16T00:56:07;7.32;;;2.67;;
78612;SDS011;67933;51.060;3.638;2023-07-16T00:58:34;6.75;;;2.70;;
78612;SDS011;67933;51.060;3.638;2023-07-16T01:00:59;5.72;;;2.42;;
78612;SDS011;67933;51.060;3.638;2023-07-16T01:03:25;5.57;;;2.67;;
78612;SDS011;67933;51.060;3.638;2023-07-16T01:08:41;5.43;;;2.47;;
78612;SDS011;67933;51.060;3.638;2023-07-16T01:11:10;6.18;;;2.13;;
78612;SDS011;67933;51.060;3.638;2023-07-16T01:13:35;7.35;;;2.70;;
78612;SDS011;67933;51.060;3.638;2023-07-16T01:16:01;7.35;;;2.90;;
78612;SDS011;67933;51.060;3.638;2023-07-16T01:18:27;8.50;;;2.60;;
78612;SDS011;67933;51.060;3.638;2023-07-16T01:20:52;7.45;;;2.35;;
78612;SDS011;67933;51.060;3.638;2023-07-16T01:23:26;9.55;;;3.28;;
78612;SDS011;67933;51.060;3.638;2023-07-16T01:26:10;7.60;;;2.88;;
78612;SDS011;67933;51.060;3.638;2023-07-16T01:31:07;10.88;;;4.07;;
78612;SDS011;67933;51.060;3.638;2023-07-16T01:33:35;8.98;;;3.25;;
78612;SDS011;67933;51.060;3.638;2023-07-16T01:36:02;8.45;;;3.78;;
78612;SDS011;67933;51.060;3.638;2023-07-16T01:38:27;7.95;;;3.58;;
78612;SDS011;67933;51.060;3.638;2023-07-16T01:40:53;8.05;;;3.53;;
78612;SDS011;67933;51.060;3.638;2023-07-16T01:43:19;8.82;;;3.83;;
78612;SDS011;67933;51.060;3.638;2023-07-16T01:45:44;6.43;;;3.42;;
78612;SDS011;67933;51.060;3.638;2023-07-16T01:51:00;5.50;;;3.17;;
78612;SDS011;67933;51.060;3.638;2023-07-16T01:53:26;5.95;;;3.20;;
78612;SDS011;67933;51.060;3.638;2023-07-16T01:55:51;6.20;;;3.00;;
78612;SDS011;67933;51.060;3.638;2023-07-16T01:58:17;7.78;;;3.28;;
78612;SDS011;67933;51.060;3.638;2023-07-16T02:00:43;6.53;;;3.20;;
78612;SDS011;67933;51.060;3.638;2023-07-16T02:03:08;6.78;;;2.53;;
78612;SDS011;67933;51.060;3.638;2023-07-16T02:05:34;6.28;;;3.65;;
78612;SDS011;67933;51.060;3.638;2023-07-16T02:07:59;7.07;;;3.38;;
78612;SDS011;67933;51.060;3.638;2023-07-16T02:10:25;10.57;;;3.88;;
78612;SDS011;67933;51.060;3.638;2023-07-16T02:12:51;8.10;;;3.28;;
78612;SDS011;67933;51.060;3.638;2023-07-16T02:15:16;5.13;;;3.03;;
78612;SDS011;67933;51.060;3.638;2023-07-16T02:17:43;7.18;;;2.80;;
78612;SDS011;67933;51.060;3.638;2023-07-16T02:20:09;8.18;;;3.40;;
78612;SDS011;67933;51.060;3.638;2023-07-16T02:22:37;7.05;;;2.88;;
78612;SDS011;67933;51.060;3.638;2023-07-16T02:25:03;7.13;;;3.25;;
78612;SDS011;67933;51.060;3.638;2023-07-16T02:27:29;6.15;;;3.13;;
78612;SDS011;67933;51.060;3.638;2023-07-16T02:29:54;9.20;;;3.40;;
78612;SDS011;67933;51.060;3.638;2023-07-16T02:32:20;8.70;;;3.70;;
78612;SDS011;67933;51.060;3.638;2023-07-16T02:34:46;7.88;;;3.20;;
78612;SDS011;67933;51.060;3.638;2023-07-16T02:37:11;7.57;;;3.00;;
78612;SDS011;67933;51.060;3.638;2023-07-16T02:39:38;10.60;;;3.67;;
78612;SDS011;67933;51.060;3.638;2023-07-16T02:42:03;8.05;;;3.95;;
78612;SDS011;67933;51.060;3.638;2023-07-16T02:44:29;11.15;;;4.00;;
78612;SDS011;67933;51.060;3.638;2023-07-16T02:46:55;9.15;;;3.63;;
78612;SDS011;67933;51.060;3.638;2023-07-16T02:49:20;8.50;;;4.10;;
78612;SDS011;67933;51.060;3.638;2023-07-16T02:51:45;11.48;;;4.85;;
78612;SDS011;67933;51.060;3.638;2023-07-16T02:54:11;7.72;;;3.72;;
78612;SDS011;67933;51.060;3.638;2023-07-16T02:56:36;11.50;;;3.88;;
78612;SDS011;67933;51.060;3.638;2023-07-16T02:59:02;8.82;;;3.97;;
78612;SDS011;67933;51.060;3.638;2023-07-16T03:01:27;7.82;;;3.78;;
78612;SDS011;67933;51.060;3.638;2023-07-16T03:03:53;8.20;;;4.03;;
78612;SDS011;67933;51.060;3.638;2023-07-16T03:06:18;9.73;;;4.28;;
78612;SDS011;67933;51.060;3.638;2023-07-16T03:08:43;12.07;;;4.03;;
78612;SDS011;67933;51.060;3.638;2023-07-16T03:11:10;7.55;;;4.00;;
78612;SDS011;67933;51.060;3.638;2023-07-16T03:13:36;11.73;;;3.63;;
78612;SDS011;67933;51.060;3.638;2023-07-16T03:16:01;8.02;;;4.05;;
78612;SDS011;67933;51.060;3.638;2023-07-16T03:18:27;11.82;;;3.67;;
78612;SDS011;67933;51.060;3.638;2023-07-16T03:20:54;7.20;;;3.78;;
78612;SDS011;67933;51.060;3.638;2023-07-16T03:23:19;7.63;;;3.83;;
78612;SDS011;67933;51.060;3.638;2023-07-16T03:25:44;10.00;;;4.35;;
78612;SDS011;67933;51.060;3.638;2023-07-16T03:28:10;8.77;;;4.82;;
78612;SDS011;67933;51.060;3.638;2023-07-16T03:30:35;9.35;;;4.10;;
78612;SDS011;67933;51.060;3.638;2023-07-16T03:33:02;7.22;;;3.85;;
78612;SDS011;67933;51.060;3.638;2023-07-16T03:35:28;8.75;;;3.55;;
78612;SDS011;67933;51.060;3.638;2023-07-16T03:37:53;9.50;;;3.63;;
78612;SDS011;67933;51.060;3.638;2023-07-16T03:40:23;8.73;;;3.88;;
78612;SDS011;67933;51.060;3.638;2023-07-16T03:42:50;8.15;;;4.60;;
78612;SDS011;67933;51.060;3.638;2023-07-16T03:45:15;23.17;;;4.88;;
78612;SDS011;67933;51.060;3.638;2023-07-16T03:47:41;8.85;;;4.03;;
78612;SDS011;67933;51.060;3.638;2023-07-16T03:50:07;11.00;;;4.40;;
78612;SDS011;67933;51.060;3.638;2023-07-16T03:52:33;9.27;;;4.43;;
78612;SDS011;67933;51.060;3.638;2023-07-16T03:54:58;10.68;;;5.00;;
78612;SDS011;67933;51.060;3.638;2023-07-16T03:57:23;11.82;;;4.60;;
78612;SDS011;67933;51.060;3.638;2023-07-16T03:59:49;10.82;;;4.72;;
78612;SDS011;67933;51.060;3.638;2023-07-16T04:02:14;10.95;;;4.97;;
78612;SDS011;67933;51.060;3.638;2023-07-16T04:04:40;9.60;;;4.22;;
78612;SDS011;67933;51.060;3.638;2023-07-16T04:07:05;9.55;;;4.68;;
78612;SDS011;67933;51.060;3.638;2023-07-16T04:09:31;11.68;;;4.70;;
78612;SDS011;67933;51.060;3.638;2023-07-16T04:11:56;10.40;;;4.60;;
78612;SDS011;67933;51.060;3.638;2023-07-16T04:14:21;9.95;;;5.07;;
78612;SDS011;67933;51.060;3.638;2023-07-16T04:16:47;10.98;;;4.75;;
78612;SDS011;67933;51.060;3.638;2023-07-16T04:19:12;11.65;;;5.25;;
78612;SDS011;67933;51.060;3.638;2023-07-16T04:21:38;11.85;;;5.63;;
78612;SDS011;67933;51.060;3.638;2023-07-16T04:24:04;11.10;;;5.40;;
78612;SDS011;67933;51.060;3.638;2023-07-16T04:26:30;10.75;;;4.80;;
78612;SDS011;67933;51.060;3.638;2023-07-16T04:28:56;10.10;;;4.70;;
78612;SDS011;67933;51.060;3.638;2023-07-16T04:31:21;9.90;;;5.05;;
78612;SDS011;67933;51.060;3.638;2023-07-16T04:33:47;12.13;;;4.80;;
78612;SDS011;67933;51.060;3.638;2023-07-16T04:36:12;8.90;;;4.82;;
78612;SDS011;67933;51.060;3.638;2023-07-16T04:38:38;9.27;;;5.75;;
78612;SDS011;67933;51.060;3.638;2023-07-16T04:41:03;11.65;;;5.30;;
78612;SDS011;67933;51.060;3.638;2023-07-16T04:43:29;12.65;;;5.68;;
78612;SDS011;67933;51.060;3.638;2023-07-16T04:45:54;12.63;;;5.70;;
78612;SDS011;67933;51.060;3.638;2023-07-16T04:48:19;10.55;;;5.47;;
78612;SDS011;67933;51.060;3.638;2023-07-16T04:50:45;13.32;;;4.78;;
78612;SDS011;67933;51.060;3.638;2023-07-16T04:53:10;14.23;;;5.65;;
78612;SDS011;67933;51.060;3.638;2023-07-16T04:55:36;11.40;;;5.38;;
78612;SDS011;67933;51.060;3.638;2023-07-16T04:58:02;12.20;;;5.30;;
78612;SDS011;67933;51.060;3.638;2023-07-16T05:00:28;11.20;;;5.18;;
78612;SDS011;67933;51.060;3.638;2023-07-16T05:02:53;11.30;;;5.32;;
78612;SDS011;67933;51.060;3.638;2023-07-16T05:05:19;14.68;;;5.13;;
78612;SDS011;67933;51.060;3.638;2023-07-16T05:07:44;10.18;;;5.60;;
78612;SDS011;67933;51.060;3.638;2023-07-16T05:10:09;12.25;;;5.85;;
78612;SDS011;67933;51.060;3.638;2023-07-16T05:12:35;10.90;;;5.78;;
78612;SDS011;67933;51.060;3.638;2023-07-16T05:15:01;12.02;;;5.90;;
78612;SDS011;67933;51.060;3.638;2023-07-16T05:17:26;9.90;;;5.10;;
78612;SDS011;67933;51.060;3.638;2023-07-16T05:19:51;11.05;;;4.97;;
78612;SDS011;67933;51.060;3.638;2023-07-16T05:22:17;13.25;;;5.60;;
78612;SDS011;67933;51.060;3.638;2023-07-16T05:24:42;13.77;;;5.88;;
78612;SDS011;67933;51.060;3.638;2023-07-16T05:27:08;15.65;;;6.43;;
78612;SDS011;67933;51.060;3.638;2023-07-16T05:29:34;13.73;;;5.90;;
78612;SDS011;67933;51.060;3.638;2023-07-16T05:31:59;13.10;;;6.32;;
78612;SDS011;67933;51.060;3.638;2023-07-16T05:34:24;11.98;;;6.50;;
78612;SDS011;67933;51.060;3.638;2023-07-16T05:36:52;11.45;;;5.85;;
78612;SDS011;67933;51.060;3.638;2023-07-16T05:39:18;13.63;;;6.30;;
78612;SDS011;67933;51.060;3.638;2023-07-16T05:41:43;9.23;;;5.25;;
78612;SDS011;67933;51.060;3.638;2023-07-16T05:44:09;11.85;;;5.78;;
78612;SDS011;67933;51.060;3.638;2023-07-16T05:46:35;11.45;;;6.53;;
78612;SDS011;67933;51.060;3.638;2023-07-16T05:49:00;11.80;;;5.72;;
78612;SDS011;67933;51.060;3.638;2023-07-16T05:51:26;10.55;;;6.25;;
78612;SDS011;67933;51.060;3.638;2023-07-16T05:53:51;14.70;;;6.47;;
78612;SDS011;67933;51.060;3.638;2023-07-16T05:56:17;14.32;;;6.50;;
78612;SDS011;67933;51.060;3.638;2023-07-16T05:58:42;12.65;;;6.10;;
78612;SDS011;67933;51.060;3.638;2023-07-16T06:01:08;13.25;;;6.03;;
78612;SDS011;67933;51.060;3.638;2023-07-16T06:03:34;11.23;;;6.15;;
78612;SDS011;67933;51.060;3.638;2023-07-16T06:05:59;15.52;;;6.38;;
78612;SDS011;67933;51.060;3.638;2023-07-16T06:08:24;11.95;;;5.63;;
78612;SDS011;67933;51.060;3.638;2023-07-16T06:10:50;15.55;;;6.15;;
78612;SDS011;67933;51.060;3.638;2023-07-16T06:13:16;12.20;;;6.15;;
78612;SDS011;67933;51.060;3.638;2023-07-16T06:15:42;15.57;;;6.38;;
78612;SDS011;67933;51.060;3.638;2023-07-16T06:18:07;12.25;;;5.50;;
78612;SDS011;67933;51.060;3.638;2023-07-16T06:20:33;10.98;;;5.80;;
78612;SDS011;67933;51.060;3.638;2023-07-16T06:22:58;11.60;;;5.60;;
78612;SDS011;67933;51.060;3.638;2023-07-16T06:25:24;15.18;;;5.57;;
78612;SDS011;67933;51.060;3.638;2023-07-16T06:27:49;16.52;;;6.95;;
78612;SDS011;67933;51.060;3.638;2023-07-16T06:30:14;14.43;;;6.65;;
78612;SDS011;67933;51.060;3.638;2023-07-16T06:32:40;11.88;;;6.35;;
78612;SDS011;67933;51.060;3.638;2023-07-16T06:35:05;15.98;;;6.60;;
78612;SDS011;67933;51.060;3.638;2023-07-16T06:37:31;15.77;;;6.13;;
78612;SDS011;67933;51.060;3.638;2023-07-16T06:39:56;12.20;;;6.97;;
78612;SDS011;67933;51.060;3.638;2023-07-16T06:42:22;13.60;;;6.50;;
78612;SDS011;67933;51.060;3.638;2023-07-16T06:44:47;18.48;;;6.07;;
78612;SDS011;67933;51.060;3.638;2023-07-16T06:47:13;12.32;;;6.28;;
78612;SDS011;67933;51.060;3.638;2023-07-16T06:49:38;11.43;;;5.65;;
78612;SDS011;67933;51.060;3.638;2023-07-16T06:52:04;17.25;;;7.07;;
78612;SDS011;67933;51.060;3.638;2023-07-16T06:54:29;16.55;;;6.15;;
78612;SDS011;67933;51.060;3.638;2023-07-16T06:56:55;14.40;;;6.18;;
78612;SDS011;67933;51.060;3.638;2023-07-16T06:59:20;12.35;;;5.70;;
78612;SDS011;67933;51.060;3.638;2023-07-16T07:01:45;11.52;;;6.20;;
78612;SDS011;67933;51.060;3.638;2023-07-16T07:04:11;12.88;;;6.00;;
78612;SDS011;67933;51.060;3.638;2023-07-16T07:06:37;13.27;;;6.00;;
78612;SDS011;67933;51.060;3.638;2023-07-16T07:09:03;13.25;;;6.70;;
78612;SDS011;67933;51.060;3.638;2023-07-16T07:11:28;12.20;;;6.00;;
78612;SDS011;67933;51.060;3.638;2023-07-16T07:13:53;12.40;;;6.82;;
78612;SDS011;67933;51.060;3.638;2023-07-16T07:16:19;12.15;;;5.97;;
78612;SDS011;67933;51.060;3.638;2023-07-16T07:18:44;16.33;;;5.85;;
78612;SDS011;67933;51.060;3.638;2023-07-16T07:21:10;12.63;;;5.78;;
78612;SDS011;67933;51.060;3.638;2023-07-16T07:23:35;13.18;;;5.65;;
78612;SDS011;67933;51.060;3.638;2023-07-16T07:26:01;12.98;;;6.30;;
78612;SDS011;67933;51.060;3.638;2023-07-16T07:28:26;16.75;;;6.57;;
78612;SDS011;67933;51.060;3.638;2023-07-16T07:30:52;11.60;;;6.18;;
78612;SDS011;67933;51.060;3.638;2023-07-16T07:33:17;12.60;;;5.90;;
78612;SDS011;67933;51.060;3.638;2023-07-16T07:35:43;10.80;;;5.10;;
78612;SDS011;67933;51.060;3.638;2023-07-16T07:38:08;10.02;;;5.75;;
78612;SDS011;67933;51.060;3.638;2023-07-16T07:40:34;17.02;;;6.22;;
78612;SDS011;67933;51.060;3.638;2023-07-16T07:42:59;12.90;;;5.82;;
78612;SDS011;67933;51.060;3.638;2023-07-16T07:45:25;10.68;;;5.68;;
78612;SDS011;67933;51.060;3.638;2023-07-16T07:47:51;9.65;;;5.32;;
78612;SDS011;67933;51.060;3.638;2023-07-16T07:50:16;9.95;;;5.22;;
78612;SDS011;67933;51.060;3.638;2023-07-16T07:52:41;8.18;;;4.78;;
78612;SDS011;67933;51.060;3.638;2023-07-16T07:55:07;13.77;;;5.72;;
78612;SDS011;67933;51.060;3.638;2023-07-16T07:57:32;16.25;;;5.93;;
78612;SDS011;67933;51.060;3.638;2023-07-16T07:59:58;11.63;;;6.25;;
78612;SDS011;67933;51.060;3.638;2023-07-16T08:02:24;11.52;;;5.60;;
78612;SDS011;67933;51.060;3.638;2023-07-16T08:04:51;13.75;;;5.47;;
78612;SDS011;67933;51.060;3.638;2023-07-16T08:07:17;9.60;;;5.30;;
78612;SDS011;67933;51.060;3.638;2023-07-16T08:09:42;8.55;;;4.82;;
78612;SDS011;67933;51.060;3.638;2023-07-16T08:12:08;13.68;;;6.28;;
78612;SDS011;67933;51.060;3.638;2023-07-16T08:14:34;12.20;;;5.43;;
78612;SDS011;67933;51.060;3.638;2023-07-16T08:16:59;14.25;;;5.20;;
78612;SDS011;67933;51.060;3.638;2023-07-16T08:19:24;12.75;;;6.03;;
78612;SDS011;67933;51.060;3.638;2023-07-16T08:21:50;13.18;;;5.28;;
78612;SDS011;67933;51.060;3.638;2023-07-16T08:24:15;14.82;;;6.20;;
78612;SDS011;67933;51.060;3.638;2023-07-16T08:26:40;10.73;;;5.10;;
78612;SDS011;67933;51.060;3.638;2023-07-16T08:29:06;11.73;;;5.40;;
78612;SDS011;67933;51.060;3.638;2023-07-16T08:31:31;9.38;;;4.97;;
78612;SDS011;67933;51.060;3.638;2023-07-16T08:33:57;11.65;;;4.65;;
78612;SDS011;67933;51.060;3.638;2023-07-16T08:36:22;8.77;;;5.07;;
78612;SDS011;67933;51.060;3.638;2023-07-16T08:38:47;12.63;;;4.40;;
78612;SDS011;67933;51.060;3.638;2023-07-16T08:41:14;9.20;;;4.22;;
78612;SDS011;67933;51.060;3.638;2023-07-16T08:43:39;10.43;;;4.72;;
78612;SDS011;67933;51.060;3.638;2023-07-16T08:46:06;9.90;;;4.75;;
78612;SDS011;67933;51.060;3.638;2023-07-16T08:48:32;9.95;;;4.57;;
78612;SDS011;67933;51.060;3.638;2023-07-16T08:50:57;11.68;;;5.18;;
78612;SDS011;67933;51.060;3.638;2023-07-16T08:53:26;10.27;;;4.93;;
78612;SDS011;67933;51.060;3.638;2023-07-16T08:55:52;8.30;;;4.75;;
78612;SDS011;67933;51.060;3.638;2023-07-16T08:58:17;11.02;;;4.65;;
78612;SDS011;67933;51.060;3.638;2023-07-16T09:00:44;11.02;;;4.78;;
78612;SDS011;67933;51.060;3.638;2023-07-16T09:03:13;11.25;;;4.68;;
78612;SDS011;67933;51.060;3.638;2023-07-16T09:05:41;12.75;;;5.38;;
78612;SDS011;67933;51.060;3.638;2023-07-16T09:08:07;12.75;;;4.82;;
78612;SDS011;67933;51.060;3.638;2023-07-16T09:10:33;9.18;;;4.80;;
78612;SDS011;67933;51.060;3.638;2023-07-16T09:12:58;12.98;;;5.32;;
78612;SDS011;67933;51.060;3.638;2023-07-16T09:15:25;11.68;;;4.70;;
78612;SDS011;67933;51.060;3.638;2023-07-16T09:17:53;9.80;;;4.50;;
78612;SDS011;67933;51.060;3.638;2023-07-16T09:20:19;11.63;;;5.15;;
78612;SDS011;67933;51.060;3.638;2023-07-16T09:22:44;4.82;;;2.83;;
78612;SDS011;67933;51.060;3.638;2023-07-16T09:25:10;5.28;;;2.17;;
78612;SDS011;67933;51.060;3.638;2023-07-16T09:27:36;4.03;;;2.20;;
78612;SDS011;67933;51.060;3.638;2023-07-16T09:30:03;4.20;;;2.20;;
78612;SDS011;67933;51.060;3.638;2023-07-16T09:32:37;5.30;;;2.17;;
78612;SDS011;67933;51.060;3.638;2023-07-16T09:35:11;3.22;;;1.98;;
78612;SDS011;67933;51.060;3.638;2023-07-16T09:37:37;5.18;;;2.35;;
78612;SDS011;67933;51.060;3.638;2023-07-16T09:40:04;4.07;;;1.60;;
78612;SDS011;67933;51.060;3.638;2023-07-16T09:42:52;4.22;;;1.95;;
78612;SDS011;67933;51.060;3.638;2023-07-16T09:45:20;5.13;;;1.30;;
78612;SDS011;67933;51.060;3.638;2023-07-16T09:47:46;3.95;;;1.27;;
78612;SDS011;67933;51.060;3.638;2023-07-16T09:50:11;3.65;;;1.05;;
78612;SDS011;67933;51.060;3.638;2023-07-16T09:52:37;3.70;;;1.50;;
78612;SDS011;67933;51.060;3.638;2023-07-16T09:55:08;3.13;;;1.35;;
78612;SDS011;67933;51.060;3.638;2023-07-16T09:57:35;6.28;;;1.20;;
78612;SDS011;67933;51.060;3.638;2023-07-16T10:00:03;3.25;;;0.85;;
78612;SDS011;67933;51.060;3.638;2023-07-16T10:02:40;1.85;;;0.98;;
78612;SDS011;67933;51.060;3.638;2023-07-16T10:07:41;1.65;;;1.10;;
78612;SDS011;67933;51.060;3.638;2023-07-16T10:10:07;1.85;;;0.88;;
78612;SDS011;67933;51.060;3.638;2023-07-16T10:12:34;1.73;;;0.98;;
78612;SDS011;67933;51.060;3.638;2023-07-16T10:15:00;1.90;;;1.10;;
78612;SDS011;67933;51.060;3.638;2023-07-16T10:17:30;2.85;;;1.20;;
78612;SDS011;67933;51.060;3.638;2023-07-16T10:20:00;2.67;;;1.17;;
78612;SDS011;67933;51.060;3.638;2023-07-16T10:27:48;2.55;;;1.23;;
78612;SDS011;67933;51.060;3.638;2023-07-16T10:30:14;2.50;;;1.05;;
78612;SDS011;67933;51.060;3.638;2023-07-16T10:32:40;4.05;;;1.30;;
78612;SDS011;67933;51.060;3.638;2023-07-16T10:35:06;8.48;;;1.55;;
78612;SDS011;67933;51.060;3.638;2023-07-16T10:37:36;4.75;;;1.40;;
78612;SDS011;67933;51.060;3.638;2023-07-16T10:40:02;4.45;;;1.27;;
78612;SDS011;67933;51.060;3.638;2023-07-16T10:42:29;5.43;;;1.60;;
78612;SDS011;67933;51.060;3.638;2023-07-16T10:44:58;6.10;;;1.55;;
78612;SDS011;67933;51.060;3.638;2023-07-16T10:47:29;3.13;;;1.75;;
78612;SDS011;67933;51.060;3.638;2023-07-16T10:49:56;4.20;;;1.90;;
78612;SDS011;67933;51.060;3.638;2023-07-16T10:52:21;4.00;;;2.10;;
78612;SDS011;67933;51.060;3.638;2023-07-16T10:54:48;6.97;;;2.17;;
78612;SDS011;67933;51.060;3.638;2023-07-16T10:57:15;6.30;;;2.13;;
78612;SDS011;67933;51.060;3.638;2023-07-16T10:59:41;8.07;;;2.30;;
78612;SDS011;67933;51.060;3.638;2023-07-16T11:02:10;6.28;;;2.22;;
78612;SDS011;67933;51.060;3.638;2023-07-16T11:04:37;7.22;;;2.72;;
78612;SDS011;67933;51.060;3.638;2023-07-16T11:07:10;6.05;;;1.95;;
78612;SDS011;67933;51.060;3.638;2023-07-16T11:12:15;4.93;;;1.80;;
78612;SDS011;67933;51.060;3.638;2023-07-16T11:14:43;2.58;;;1.88;;
78612;SDS011;67933;51.060;3.638;2023-07-16T11:17:10;5.13;;;1.88;;
78612;SDS011;67933;51.060;3.638;2023-07-16T11:19:36;6.32;;;2.30;;
78612;SDS011;67933;51.060;3.638;2023-07-16T11:22:03;5.10;;;2.28;;
78612;SDS011;67933;51.060;3.638;2023-07-16T11:24:43;4.43;;;1.90;;
78612;SDS011;67933;51.060;3.638;2023-07-16T11:27:19;5.03;;;2.00;;
78612;SDS011;67933;51.060;3.638;2023-07-16T11:29:46;7.03;;;2.25;;
78612;SDS011;67933;51.060;3.638;2023-07-16T11:32:32;6.13;;;2.00;;
78612;SDS011;67933;51.060;3.638;2023-07-16T11:35:00;5.60;;;1.70;;
78612;SDS011;67933;51.060;3.638;2023-07-16T11:37:28;7.30;;;2.15;;
78612;SDS011;67933;51.060;3.638;2023-07-16T11:40:05;5.53;;;1.88;;
78612;SDS011;67933;51.060;3.638;2023-07-16T11:42:33;7.32;;;1.90;;
78612;SDS011;67933;51.060;3.638;2023-07-16T11:45:00;5.90;;;2.20;;
78612;SDS011;67933;51.060;3.638;2023-07-16T11:47:26;5.03;;;2.15;;
78612;SDS011;67933;51.060;3.638;2023-07-16T11:49:52;4.65;;;2.30;;
78612;SDS011;67933;51.060;3.638;2023-07-16T11:52:18;7.80;;;2.63;;
78612;SDS011;67933;51.060;3.638;2023-07-16T11:54:56;6.18;;;2.47;;
78612;SDS011;67933;51.060;3.638;2023-07-16T11:57:24;7.25;;;2.30;;
78612;SDS011;67933;51.060;3.638;2023-07-16T11:59:50;5.90;;;2.05;;
78612;SDS011;67933;51.060;3.638;2023-07-16T12:02:15;4.72;;;1.70;;
78612;SDS011;67933;51.060;3.638;2023-07-16T12:04:41;4.93;;;1.55;;
78612;SDS011;67933;51.060;3.638;2023-07-16T12:07:06;3.90;;;2.30;;
78612;SDS011;67933;51.060;3.638;2023-07-16T12:09:32;4.55;;;2.28;;
78612;SDS011;67933;51.060;3.638;2023-07-16T12:11:57;4.55;;;1.92;;
78612;SDS011;67933;51.060;3.638;2023-07-16T12:14:23;3.40;;;1.85;;
78612;SDS011;67933;51.060;3.638;2023-07-16T12:16:48;4.43;;;1.92;;
78612;SDS011;67933;51.060;3.638;2023-07-16T12:19:14;4.57;;;1.80;;
78612;SDS011;67933;51.060;3.638;2023-07-16T12:21:39;6.50;;;2.17;;
78612;SDS011;67933;51.060;3.638;2023-07-16T12:24:05;5.40;;;2.10;;
78612;SDS011;67933;51.060;3.638;2023-07-16T12:26:30;3.95;;;1.50;;
78612;SDS011;67933;51.060;3.638;2023-07-16T12:28:56;3.80;;;2.08;;
78612;SDS011;67933;51.060;3.638;2023-07-16T12:31:21;4.78;;;1.88;;
78612;SDS011;67933;51.060;3.638;2023-07-16T12:33:47;3.22;;;1.65;;
78612;SDS011;67933;51.060;3.638;2023-07-16T12:36:13;3.17;;;1.50;;
78612;SDS011;67933;51.060;3.638;2023-07-16T12:38:39;4.28;;;1.88;;
78612;SDS011;67933;51.060;3.638;2023-07-16T12:41:05;3.70;;;1.50;;
78612;SDS011;67933;51.060;3.638;2023-07-16T12:43:30;4.35;;;2.13;;
78612;SDS011;67933;51.060;3.638;2023-07-16T12:45:59;7.40;;;2.00;;
78612;SDS011;67933;51.060;3.638;2023-07-16T12:48:25;4.03;;;1.70;;
78612;SDS011;67933;51.060;3.638;2023-07-16T12:50:51;3.35;;;1.83;;
78612;SDS011;67933;51.060;3.638;2023-07-16T12:53:16;4.65;;;1.73;;
78612;SDS011;67933;51.060;3.638;2023-07-16T12:55:42;3.42;;;1.65;;
78612;SDS011;67933;51.060;3.638;2023-07-16T12:58:07;3.72;;;1.67;;
78612;SDS011;67933;51.060;3.638;2023-07-16T13:00:32;4.43;;;1.80;;
78612;SDS011;67933;51.060;3.638;2023-07-16T13:02:58;4.75;;;1.73;;
78612;SDS011;67933;51.060;3.638;2023-07-16T13:05:23;4.60;;;1.88;;
78612;SDS011;67933;51.060;3.638;2023-07-16T13:07:49;4.40;;;1.67;;
78612;SDS011;67933;51.060;3.638;2023-07-16T13:10:14;4.68;;;1.85;;
78612;SDS011;67933;51.060;3.638;2023-07-16T13:12:39;3.08;;;1.60;;
78612;SDS011;67933;51.060;3.638;2023-07-16T13:15:05;3.67;;;1.42;;
78612;SDS011;67933;51.060;3.638;2023-07-16T13:17:31;5.05;;;1.60;;
78612;SDS011;67933;51.060;3.638;2023-07-16T13:19:56;3.78;;;1.70;;
78612;SDS011;67933;51.060;3.638;2023-07-16T13:22:22;4.00;;;1.42;;
78612;SDS011;67933;51.060;3.638;2023-07-16T13:24:47;4.07;;;1.65;;
78612;SDS011;67933;51.060;3.638;2023-07-16T13:27:22;5.15;;;1.65;;
78612;SDS011;67933;51.060;3.638;2023-07-16T13:29:48;6.20;;;1.98;;
78612;SDS011;67933;51.060;3.638;2023-07-16T13:32:14;5.18;;;2.13;;
78612;SDS011;67933;51.060;3.638;2023-07-16T13:34:39;4.18;;;1.92;;
78612;SDS011;67933;51.060;3.638;2023-07-16T13:37:05;4.55;;;1.80;;
78612;SDS011;67933;51.060;3.638;2023-07-16T13:39:31;4.13;;;1.80;;
78612;SDS011;67933;51.060;3.638;2023-07-16T13:41:56;3.97;;;1.98;;
78612;SDS011;67933;51.060;3.638;2023-07-16T13:44:21;4.45;;;2.17;;
78612;SDS011;67933;51.060;3.638;2023-07-16T13:46:47;5.10;;;2.13;;
78612;SDS011;67933;51.060;3.638;2023-07-16T13:49:12;3.47;;;1.80;;
78612;SDS011;67933;51.060;3.638;2023-07-16T13:51:38;3.15;;;1.85;;
78612;SDS011;67933;51.060;3.638;2023-07-16T13:54:04;3.28;;;1.67;;
78612;SDS011;67933;51.060;3.638;2023-07-16T13:56:29;6.82;;;2.03;;
78612;SDS011;67933;51.060;3.638;2023-07-16T13:58:54;5.53;;;2.08;;
78612;SDS011;67933;51.060;3.638;2023-07-16T14:01:21;3.75;;;2.45;;
78612;SDS011;67933;51.060;3.638;2023-07-16T14:03:47;4.65;;;1.90;;
78612;SDS011;67933;51.060;3.638;2023-07-16T14:06:12;4.15;;;2.00;;
78612;SDS011;67933;51.060;3.638;2023-07-16T14:08:38;3.78;;;1.73;;
78612;SDS011;67933;51.060;3.638;2023-07-16T14:11:03;3.15;;;1.55;;
78612;SDS011;67933;51.060;3.638;2023-07-16T14:13:29;3.50;;;1.60;;
78612;SDS011;67933;51.060;3.638;2023-07-16T14:15:54;4.43;;;1.80;;
78612;SDS011;67933;51.060;3.638;2023-07-16T14:18:20;5.28;;;2.00;;
78612;SDS011;67933;51.060;3.638;2023-07-16T14:20:45;4.38;;;1.80;;
78612;SDS011;67933;51.060;3.638;2023-07-16T14:23:11;3.03;;;1.50;;
78612;SDS011;67933;51.060;3.638;2023-07-16T14:25:36;3.97;;;1.65;;
78612;SDS011;67933;51.060;3.638;2023-07-16T14:28:02;3.33;;;1.52;;
78612;SDS011;67933;51.060;3.638;2023-07-16T14:30:27;4.97;;;1.65;;
78612;SDS011;67933;51.060;3.638;2023-07-16T14:32:52;4.53;;;1.80;;
78612;SDS011;67933;51.060;3.638;2023-07-16T14:35:18;3.42;;;1.77;;
78612;SDS011;67933;51.060;3.638;2023-07-16T14:37:43;4.10;;;1.70;;
78612;SDS011;67933;51.060;3.638;2023-07-16T14:40:09;4.57;;;1.52;;
78612;SDS011;67933;51.060;3.638;2023-07-16T14:42:35;4.32;;;1.55;;
78612;SDS011;67933;51.060;3.638;2023-07-16T14:45:00;5.97;;;1.98;;
78612;SDS011;67933;51.060;3.638;2023-07-16T14:47:25;3.58;;;1.75;;
78612;SDS011;67933;51.060;3.638;2023-07-16T14:49:51;3.80;;;1.55;;
78612;SDS011;67933;51.060;3.638;2023-07-16T14:52:17;4.00;;;1.75;;
78612;SDS011;67933;51.060;3.638;2023-07-16T14:54:43;7.93;;;1.95;;